createdAt,value
2022-08-22T00:40:59.102Z,86
2022-08-22T01:41:01.327Z,91
2022-08-22T02:21:04.004Z,93
2022-08-22T03:51:10.687Z,98
2022-08-22T05:11:14.757Z,100
2022-08-22T05:21:15.384Z,99
2022-08-22T05:31:16.109Z,98
2022-08-22T05:41:16.639Z,96
2022-08-22T05:51:17.505Z,95
2022-08-22T06:01:18.282Z,94
2022-08-22T06:11:19.283Z,93
2022-08-22T06:21:19.431Z,92
2022-08-22T06:31:20.515Z,91
2022-08-22T06:41:21.265Z,90
2022-08-22T06:51:22.250Z,89
2022-08-22T07:01:23.062Z,89
2022-08-22T07:11:23.374Z,88
2022-08-22T07:21:23.734Z,86
2022-08-22T07:31:24.399Z,85
2022-08-22T07:41:25.274Z,83
2022-08-22T07:51:25.630Z,83
2022-08-22T08:01:26.292Z,82
2022-08-22T08:11:26.275Z,81
2022-08-22T08:21:26.991Z,79
2022-08-22T08:31:27.489Z,79
2022-08-22T08:41:27.971Z,76
2022-08-22T08:51:28.156Z,75
2022-08-22T09:01:28.586Z,73
2022-08-22T09:11:28.787Z,71
2022-08-22T09:21:30.892Z,70
2022-08-22T09:31:33.151Z,69
2022-08-22T09:41:30.501Z,60
2022-08-22T09:51:33.040Z,61
2022-08-22T10:01:32.719Z,61
2022-08-22T10:11:32.338Z,56
2022-08-22T10:21:33.242Z,55
2022-08-22T10:31:33.616Z,55
2022-08-22T10:41:34.434Z,54
2022-08-22T10:51:34.888Z,53
2022-08-22T11:01:37.348Z,52
2022-08-22T11:11:35.810Z,51
2022-08-22T11:21:36.406Z,50
2022-08-22T11:31:37.467Z,48
2022-08-22T11:41:38.159Z,50
2022-08-22T11:51:38.329Z,48
2022-08-22T12:01:39.192Z,49
2022-08-22T12:11:39.703Z,49
2022-08-22T12:31:41.433Z,49
2022-08-22T12:51:42.656Z,49
2022-08-22T13:01:43.843Z,48
2022-08-22T13:11:43.854Z,48
2022-08-22T13:21:44.784Z,48
2022-08-22T13:31:45.944Z,48
2022-08-22T13:41:46.266Z,46
2022-08-22T13:51:47.014Z,46
2022-08-22T14:01:47.675Z,46
2022-08-22T14:11:48.369Z,46
2022-08-22T14:31:50.096Z,46
2022-08-22T14:41:52.180Z,46
2022-08-22T14:51:51.063Z,46
2022-08-22T15:01:51.138Z,46
2022-08-22T15:11:51.802Z,46
2022-08-22T15:21:52.802Z,47
2022-08-22T15:31:53.399Z,46
2022-08-22T15:41:54.343Z,45
2022-08-22T16:31:57.686Z,48
2022-08-22T17:12:00.419Z,47
2022-08-22T17:32:01.726Z,50
2022-08-22T17:42:01.891Z,51
2022-08-22T17:52:02.033Z,53
2022-08-22T18:12:03.882Z,54
2022-08-22T18:22:04.588Z,55
2022-08-22T18:32:05.120Z,55
2022-08-22T18:42:05.505Z,56
2022-08-22T18:52:05.986Z,57
2022-08-22T19:02:06.789Z,58
2022-08-22T19:12:07.111Z,58
2022-08-22T19:22:07.902Z,59
2022-08-22T19:52:08.684Z,63
2022-08-22T20:02:08.804Z,63
2022-08-22T20:12:13.336Z,63
2022-08-22T20:32:10.540Z,64
2022-08-22T20:42:11.508Z,65
2022-08-22T20:52:12.439Z,66
2022-08-22T21:02:12.876Z,66
2022-08-22T21:12:13.461Z,66
2022-08-22T21:22:13.838Z,66
2022-08-22T21:32:14.156Z,67
2022-08-22T21:42:14.603Z,67
2022-08-22T21:52:15.636Z,67
2022-08-22T22:02:15.838Z,67
2022-08-22T22:12:16.162Z,67
2022-08-22T22:22:16.577Z,68
2022-08-22T22:32:17.016Z,68
2022-08-22T22:52:19.095Z,69
2022-08-22T23:02:20.045Z,71
2022-08-22T23:12:20.795Z,73
2022-08-22T23:32:22.449Z,73
2022-08-22T23:42:23.221Z,73
2022-08-22T23:52:24.055Z,73
